Time;durP1;ratioP1;P1;durP2;ratioP2;P2;SDS_P1;SDS_P2;PMS_P1;PMS_P2;Temp;Humidity;BMP_temperature;BMP_pressure;BME280_temperature;BME280_humidity;BME280_pressure;Samples;Min_cycle;Max_cycle;Signal;HPM_P1;HPM_P2
2022/01/09 00:01:08;;;;;;;9.27;7.00;;;0.90;92.10;;;-0.67;93.66;96229.25;5077138;28;20536;-68
2022/01/09 00:03:35;;;;;;;8.10;6.57;;;1.00;91.50;;;-0.54;93.66;96228.56;5077946;28;20441;-69
2022/01/09 00:06:02;;;;;;;7.10;6.47;;;1.00;91.80;;;-0.59;93.73;96226.47;5059430;28;20437;-70
2022/01/09 00:08:30;;;;;;;6.93;6.33;;;1.10;91.40;;;-0.67;93.10;96208.03;5076807;28;20936;-69
2022/01/09 00:10:58;;;;;;;6.90;6.27;;;1.10;91.00;;;-0.61;92.93;96211.72;5076935;28;20465;-69
2022/01/09 00:13:25;;;;;;;7.47;6.77;;;1.10;90.50;;;-0.55;93.17;96204.84;5077424;28;20475;-70
2022/01/09 00:15:52;;;;;;;6.30;5.70;;;1.10;90.50;;;-0.49;92.43;96206.75;5076624;28;20449;-69
2022/01/09 00:18:19;;;;;;;8.40;6.87;;;1.10;90.70;;;-0.54;92.49;96199.38;5076793;28;20524;-70
2022/01/09 00:20:46;;;;;;;7.13;5.83;;;1.20;90.10;;;-0.38;92.07;96195.66;5074559;28;20437;-71
2022/01/09 00:23:13;;;;;;;7.50;6.73;;;1.20;90.30;;;-0.58;92.35;96187.50;5074798;28;20464;-69
2022/01/09 00:25:41;;;;;;;8.33;6.17;;;1.10;89.80;;;-0.48;92.17;96179.22;5074401;28;20543;-68
2022/01/09 00:28:08;;;;;;;9.80;6.63;;;1.20;90.00;;;-0.51;91.89;96175.09;5076176;28;20476;-68
2022/01/09 00:30:35;;;;;;;7.40;6.40;;;1.10;89.90;;;-0.50;91.84;96165.31;5076449;28;20447;-69
2022/01/09 00:33:02;;;;;;;6.90;6.20;;;1.20;89.70;;;-0.50;91.60;96165.31;5076557;28;20482;-68
2022/01/09 00:35:30;;;;;;;7.80;5.90;;;1.20;89.50;;;-0.50;92.47;96155.50;5058655;28;20437;-69
2022/01/09 00:37:57;;;;;;;7.47;6.50;;;1.10;90.10;;;-0.50;92.33;96144.09;5058986;28;20506;-69
2022/01/09 00:40:24;;;;;;;6.73;6.03;;;1.20;90.10;;;-0.33;91.28;96150.75;5076551;28;20429;-69
2022/01/09 00:42:52;;;;;;;7.27;6.53;;;1.20;89.50;;;-0.83;91.62;96071.16;5076319;28;20437;-69
2022/01/09 00:45:20;;;;;;;6.50;5.80;;;1.20;90.00;;;-0.35;92.01;96144.84;5058389;28;21034;-69
2022/01/09 00:47:47;;;;;;;6.87;6.17;;;1.30;89.60;;;-0.43;92.16;96139.66;5076372;28;20502;-69
2022/01/09 00:50:16;;;;;;;6.27;5.67;;;1.30;89.60;;;-0.30;91.65;96129.13;5076316;28;20436;-69
2022/01/09 00:52:43;;;;;;;6.57;5.77;;;1.30;90.10;;;-0.32;92.00;96115.25;5076239;28;20499;-69
2022/01/09 00:55:12;;;;;;;6.13;5.53;;;1.30;90.40;;;-0.47;92.61;96117.97;5076128;28;20434;-69
2022/01/09 00:57:38;;;;;;;7.30;6.20;;;1.20;90.60;;;-0.37;93.10;96127.44;5076177;28;20480;-69
2022/01/09 01:00:09;;;;;;;6.70;6.00;;;1.20;91.30;;;-0.34;92.84;96117.28;5076314;28;20964;-70
2022/01/09 01:02:36;;;;;;;6.80;6.10;;;1.30;91.10;;;-0.43;93.22;96116.59;5086599;28;20465;-70
2022/01/09 01:05:05;;;;;;;7.47;6.50;;;1.20;90.90;;;-0.35;92.68;96105.03;5091053;28;20536;-69
2022/01/09 01:07:32;;;;;;;5.93;5.23;;;1.30;91.00;;;-0.42;93.29;96098.84;5073062;28;20453;-68
2022/01/09 01:09:59;;;;;;;7.67;5.40;;;1.30;91.20;;;-0.49;93.33;96098.78;5079829;28;20461;-69
2022/01/09 01:12:28;;;;;;;6.07;5.47;;;1.20;91.20;;;-0.36;93.64;96079.50;5076223;28;21020;-69
2022/01/09 01:14:55;;;;;;;5.67;5.10;;;1.30;91.80;;;-0.41;93.09;96089.06;5076577;28;20469;-69
2022/01/09 01:17:24;;;;;;;7.07;6.07;;;1.30;91.10;;;-0.41;93.61;96081.91;5075711;28;20520;-68
2022/01/09 01:19:52;;;;;;;7.17;5.70;;;1.30;91.50;;;-0.49;93.97;96072.25;5075976;28;20496;-68
2022/01/09 01:22:19;;;;;;;6.67;4.93;;;1.20;91.90;;;-0.49;94.12;96082.88;5058417;28;20819;-70
2022/01/09 01:24:47;;;;;;;6.10;5.47;;;1.20;91.80;;;-0.55;95.39;96072.19;5057425;28;20537;-70
2022/01/09 01:27:15;;;;;;;6.50;5.70;;;1.10;93.40;;;-0.64;95.61;96063.56;5075907;28;20472;-70
2022/01/09 01:29:42;;;;;;;10.57;6.07;;;1.10;94.40;;;-0.57;96.26;96059.94;5057737;28;20481;-69
2022/01/09 01:32:09;;;;;;;9.37;6.93;;;1.10;95.50;;;-0.66;97.01;96058.47;5075508;28;20493;-68
2022/01/09 01:34:38;;;;;;;6.23;5.30;;;1.00;96.10;;;-0.64;97.39;96061.75;5075373;28;20434;-69
2022/01/09 01:37:05;;;;;;;7.07;5.70;;;1.00;97.80;;;-0.66;97.79;96053.16;5058191;28;20455;-69
2022/01/09 01:39:32;;;;;;;7.63;6.50;;;1.00;98.90;;;-0.68;98.06;96052.53;5057567;28;20523;-69
2022/01/09 01:41:59;;;;;;;8.27;6.50;;;1.00;98.70;;;-0.55;97.78;96040.34;5057926;28;20520;-69
2022/01/09 01:44:26;;;;;;;6.97;5.70;;;1.10;99.00;;;-0.55;96.98;96038.53;5075167;28;20523;-70
2022/01/09 01:46:53;;;;;;;7.40;5.37;;;1.10;97.70;;;-0.57;97.21;96037.91;5075208;28;20445;-69
2022/01/09 01:49:20;;;;;;;8.43;5.50;;;1.10;97.00;;;-0.54;96.98;96032.22;5075215;28;20426;-69
2022/01/09 01:51:48;;;;;;;7.57;6.23;;;1.10;96.60;;;-0.51;97.06;96036.31;5057098;28;20552;-69
2022/01/09 01:54:16;;;;;;;5.33;4.83;;;1.10;96.70;;;-0.52;97.09;96040.00;5075123;28;20936;-68
2022/01/09 01:56:43;;;;;;;5.33;4.83;;;1.10;96.80;;;-0.59;97.79;96024.03;5073913;28;20794;-69
2022/01/09 01:59:10;;;;;;;7.20;4.13;;;1.10;98.40;;;-0.50;97.81;96048.59;5074971;28;20444;-69
2022/01/09 02:01:37;;;;;;;6.13;4.30;;;1.10;98.60;;;-0.60;97.95;96015.25;5075004;28;20452;-68
2022/01/09 02:04:05;;;;;;;5.10;4.60;;;1.10;98.80;;;-0.66;98.28;96007.22;5056985;28;20502;-69
2022/01/09 02:06:34;;;;;;;6.73;5.47;;;1.00;99.00;;;-1.05;98.20;95945.78;5074790;28;20425;-68
2022/01/09 02:09:04;;;;;;;6.33;5.20;;;1.10;99.60;;;-0.61;98.26;96018.91;5056819;28;20889;-68
2022/01/09 02:11:32;;;;;;;8.10;5.10;;;1.00;99.90;;;-0.60;98.80;96023.19;5074131;28;20556;-67
2022/01/09 02:13:59;;;;;;;5.23;4.73;;;1.10;99.90;;;-0.66;98.57;96008.06;5076116;28;20437;-67
2022/01/09 02:16:28;;;;;;;5.63;4.83;;;1.00;99.90;;;-0.67;99.13;96003.78;5075891;28;20520;-68
2022/01/09 02:18:57;;;;;;;6.20;5.30;;;1.00;99.90;;;-0.65;99.83;95998.25;5074305;28;20901;-68
2022/01/09 02:21:26;;;;;;;11.53;5.80;;;1.00;99.90;;;-0.58;99.57;96009.75;5075281;28;20437;-67
2022/01/09 02:23:53;;;;;;;5.10;4.57;;;1.00;99.90;;;-0.60;99.74;95999.31;5072897;28;20445;-68
2022/01/09 02:26:24;;;;;;;5.83;5.10;;;1.10;99.90;;;-0.59;99.89;95997.50;5074585;28;20429;-68
2022/01/09 02:28:51;;;;;;;8.33;4.33;;;1.00;99.90;;;-0.70;100.00;95979.47;5056782;28;20429;-68
2022/01/09 02:31:19;;;;;;;5.40;4.00;;;1.00;99.90;;;-0.68;100.00;95990.69;5056055;28;20770;-68
2022/01/09 02:33:46;;;;;;;6.87;5.80;;;1.00;99.90;;;-0.74;100.00;95992.28;5074313;28;20566;-68
2022/01/09 02:36:13;;;;;;;6.67;5.17;;;0.90;99.90;;;-0.73;100.00;95991.28;5074619;28;20981;-68
2022/01/09 02:38:41;;;;;;;6.10;5.50;;;0.90;99.90;;;-0.74;100.00;95992.28;5074252;28;20519;-68
2022/01/09 02:41:08;;;;;;;5.50;4.90;;;0.90;99.90;;;-0.81;100.00;95970.22;5056196;28;20608;-67
2022/01/09 02:43:35;;;;;;;4.90;4.27;;;0.90;99.90;;;-0.76;100.00;95965.97;5074178;28;20449;-69
2022/01/09 02:46:12;;;;;;;5.17;4.67;;;0.90;99.90;;;-0.74;100.00;95979.88;5074107;28;20449;-68
2022/01/09 02:48:39;;;;;;;6.13;4.63;;;0.90;99.90;;;-0.71;100.00;95962.72;5073898;28;20777;-69
2022/01/09 02:51:11;;;;;;;6.10;4.30;;;0.90;99.90;;;-0.78;100.00;95953.91;5073033;28;20449;-68
2022/01/09 02:53:39;;;;;;;4.90;4.40;;;0.90;99.90;;;-0.68;100.00;95956.22;5072818;28;20469;-66
2022/01/09 02:56:09;;;;;;;5.83;4.60;;;1.00;99.90;;;-0.70;100.00;95953.75;5056070;28;20441;-67
2022/01/09 02:58:38;;;;;;;4.70;3.63;;;1.00;99.90;;;-0.70;100.00;95952.94;5073555;28;20444;-67
2022/01/09 03:01:07;;;;;;;5.70;4.80;;;1.00;99.90;;;-0.69;100.00;95943.97;5073890;28;20460;-67
2022/01/09 03:03:35;;;;;;;6.13;4.67;;;1.00;99.90;;;-0.67;100.00;95942.78;5054718;28;20460;-69
2022/01/09 03:06:02;;;;;;;4.70;4.30;;;1.00;99.90;;;-0.69;100.00;95941.31;5073837;28;20909;-69
2022/01/09 03:08:29;;;;;;;5.17;4.63;;;1.00;99.90;;;-0.70;100.00;95934.38;5073781;28;20513;-68
2022/01/09 03:10:56;;;;;;;3.53;3.23;;;1.00;99.90;;;-0.57;100.00;95929.94;5073998;28;20437;-68
2022/01/09 03:13:25;;;;;;;4.60;4.00;;;1.00;99.90;;;-0.60;100.00;95933.00;5073246;28;20470;-68
2022/01/09 03:15:52;;;;;;;4.03;3.37;;;1.00;99.90;;;-0.37;100.00;95925.75;5074355;28;20430;-67
2022/01/09 03:18:19;;;;;;;4.27;3.87;;;1.10;99.90;;;-0.53;100.00;95921.59;5073554;28;20465;-67
2022/01/09 03:20:46;;;;;;;4.33;3.63;;;1.10;99.90;;;-0.57;100.00;95932.59;5056035;28;20432;-68
2022/01/09 03:23:13;;;;;;;3.80;3.50;;;1.10;99.90;;;-0.51;100.00;95927.56;5073171;28;20536;-68
2022/01/09 03:25:40;;;;;;;3.97;3.37;;;1.10;99.90;;;-0.41;100.00;95920.03;5055449;28;20539;-68
2022/01/09 03:28:07;;;;;;;3.10;2.77;;;1.20;99.90;;;-0.39;100.00;95920.66;5073455;28;20528;-68
2022/01/09 03:30:35;;;;;;;3.50;3.20;;;1.20;99.90;;;-0.32;100.00;95918.84;5055789;28;20528;-68
2022/01/09 03:33:02;;;;;;;3.47;3.17;;;1.30;99.90;;;-0.35;100.00;95913.13;5055551;28;20489;-69
2022/01/09 03:35:30;;;;;;;3.50;3.00;;;1.30;99.90;;;-0.34;100.00;95915.59;5073441;28;20472;-69
2022/01/09 03:37:58;;;;;;;3.23;3.03;;;1.30;99.90;;;-0.34;100.00;95912.94;5073426;28;20512;-68
2022/01/09 03:40:28;;;;;;;3.03;2.83;;;1.30;99.90;;;-0.23;100.00;95913.34;5055347;28;20473;-68
2022/01/09 03:42:55;;;;;;;2.70;2.50;;;1.40;99.90;;;-0.23;100.00;95900.09;5073338;28;20524;-68
2022/01/09 03:45:25;;;;;;;2.83;2.63;;;1.40;99.90;;;-0.31;100.00;95891.28;5073511;28;20532;-68
2022/01/09 03:47:54;;;;;;;2.70;2.50;;;1.40;99.90;;;-0.19;100.00;95898.69;5073279;28;20447;-69
2022/01/09 03:50:22;;;;;;;3.10;2.90;;;1.40;99.90;;;-0.40;100.00;95852.66;5073221;28;20432;-69
2022/01/09 03:52:49;;;;;;;3.37;2.80;;;1.40;99.90;;;-0.13;100.00;95903.19;5054795;28;20461;-69
2022/01/09 03:55:19;;;;;;;3.07;2.80;;;1.50;99.90;;;-0.13;100.00;95900.53;5055784;28;20924;-69
2022/01/09 03:57:46;;;;;;;2.53;2.43;;;1.50;99.90;;;-0.13;100.00;95892.56;5073181;28;20442;-69
2022/01/09 04:00:16;;;;;;;3.20;2.90;;;1.50;99.90;;;-0.07;100.00;95894.44;5055195;28;20440;-69
2022/01/09 04:02:44;;;;;;;3.20;2.97;;;1.50;99.90;;;-0.07;100.00;95894.44;5073102;28;20433;-68
2022/01/09 04:05:13;;;;;;;3.00;2.80;;;1.50;99.90;;;-0.04;100.00;95883.41;5074101;28;20764;-68
2022/01/09 04:07:40;;;;;;;3.50;2.97;;;1.50;99.90;;;0.05;100.00;95888.53;5073341;28;20477;-70
2022/01/09 04:10:08;;;;;;;2.67;2.50;;;1.60;99.90;;;-0.26;100.00;95858.03;5072722;28;20896;-70
2022/01/09 04:12:46;;;;;;;2.80;2.60;;;1.60;99.90;;;0.05;100.00;95880.56;5072955;28;20574;-70
2022/01/09 04:15:14;;;;;;;3.07;2.80;;;1.60;99.90;;;0.08;100.00;95880.19;5055156;28;20999;-69
2022/01/09 04:17:50;;;;;;;2.40;2.20;;;1.60;99.90;;;0.14;99.28;95871.41;5072988;28;20452;-70
2022/01/09 04:20:20;;;;;;;2.87;2.67;;;1.70;99.90;;;0.10;99.62;95884.25;5073488;28;20425;-69
2022/01/09 04:22:47;;;;;;;2.80;2.60;;;1.70;99.90;;;0.12;99.58;95886.72;5054559;28;20430;-69
2022/01/09 04:25:15;;;;;;;2.47;2.27;;;1.70;99.90;;;0.16;99.60;95887.13;5072868;28;20437;-69
2022/01/09 04:27:42;;;;;;;2.37;2.17;;;1.70;99.90;;;-0.04;99.30;95856.03;5072559;28;20970;-69
2022/01/09 04:30:10;;;;;;;1.83;1.73;;;1.70;99.90;;;0.12;99.60;95884.06;5072772;28;20436;-69
2022/01/09 04:32:38;;;;;;;1.87;1.77;;;1.70;99.90;;;0.22;99.20;95876.50;5072925;28;20457;-69
2022/01/09 04:35:06;;;;;;;2.50;2.30;;;1.80;99.90;;;0.12;99.53;95870.78;5077047;28;20524;-68
2022/01/09 04:37:36;;;;;;;2.07;1.97;;;1.80;99.90;;;0.13;99.34;95875.06;5076446;28;20468;-69
2022/01/09 04:40:05;;;;;;;1.90;1.80;;;1.80;99.90;;;0.20;99.44;95873.22;5076547;28;20437;-69
2022/01/09 04:42:38;;;;;;;2.53;2.30;;;1.80;99.90;;;0.21;99.19;95874.06;5076462;28;20527;-69
2022/01/09 04:45:08;;;;;;;2.00;1.90;;;1.80;99.90;;;0.33;99.00;95869.78;5058815;28;20451;-70
2022/01/09 04:47:35;;;;;;;2.70;2.50;;;1.90;99.90;;;0.31;98.86;95871.00;5060253;28;20433;-70
2022/01/09 04:50:02;;;;;;;2.50;2.30;;;1.90;99.90;;;0.40;98.81;95873.25;5087495;28;20438;-70
2022/01/09 04:52:33;;;;;;;2.63;2.43;;;1.90;99.90;;;0.41;98.34;95872.22;5075013;28;20487;-69
2022/01/09 04:55:04;;;;;;;2.30;2.20;;;2.00;99.40;;;0.39;98.36;95857.53;5083039;28;20425;-70
2022/01/09 04:57:31;;;;;;;2.33;2.23;;;1.90;99.90;;;0.40;98.41;95867.13;5059103;28;20778;-70
2022/01/09 04:59:58;;;;;;;2.43;2.23;;;2.00;99.40;;;0.51;98.31;95868.38;5058558;28;20442;-69
2022/01/09 05:02:25;;;;;;;2.40;2.20;;;2.10;98.90;;;0.47;97.81;95861.81;5076060;28;20452;-68
2022/01/09 05:04:52;;;;;;;2.90;2.60;;;2.10;98.50;;;0.55;98.03;95865.09;5076189;28;20472;-68
2022/01/09 05:07:19;;;;;;;3.17;2.80;;;2.10;98.90;;;0.54;97.90;95868.78;5076109;28;20524;-68
2022/01/09 05:09:46;;;;;;;3.67;3.37;;;2.10;98.40;;;0.57;98.04;95872.84;5058292;28;20433;-68
2022/01/09 05:12:14;;;;;;;3.47;3.17;;;2.20;98.00;;;0.66;97.84;95874.28;5077173;28;20449;-68
2022/01/09 05:14:41;;;;;;;2.97;2.77;;;2.20;98.30;;;0.73;97.27;95876.13;5060858;28;20555;-69
2022/01/09 05:17:08;;;;;;;2.80;2.60;;;2.30;97.20;;;0.59;97.75;95881.44;5075957;28;20472;-69
2022/01/09 05:19:36;;;;;;;2.80;2.60;;;2.20;97.20;;;0.68;97.88;95882.03;5075809;28;20484;-69
2022/01/09 05:22:05;;;;;;;2.87;2.67;;;2.20;98.30;;;0.68;98.08;95874.06;5057670;28;20913;-68
2022/01/09 05:24:32;;;;;;;3.20;2.93;;;2.20;99.60;;;0.64;97.99;95872.84;5057895;28;20441;-68
2022/01/09 05:26:59;;;;;;;2.70;2.50;;;2.20;98.80;;;0.69;98.03;95875.72;5057206;28;20439;-68
2022/01/09 05:29:27;;;;;;;3.00;2.70;;;2.20;99.50;;;0.80;97.71;95880.41;5075523;28;20529;-68
2022/01/09 05:31:54;;;;;;;3.20;2.90;;;2.30;99.00;;;0.78;97.42;95877.13;5075776;28;20516;-69
2022/01/09 05:34:21;;;;;;;3.60;3.30;;;2.40;97.10;;;0.78;97.61;95894.94;5057445;28;20552;-68
2022/01/09 05:36:48;;;;;;;6.00;3.30;;;2.30;97.90;;;0.91;97.49;95888.78;5057433;28;20536;-68
2022/01/09 05:39:15;;;;;;;3.03;2.83;;;2.40;98.00;;;0.79;97.51;95894.72;5075558;28;20441;-68
2022/01/09 05:41:44;;;;;;;3.40;3.10;;;2.40;97.70;;;0.87;97.61;95896.34;5075353;28;20430;-67
2022/01/09 05:44:11;;;;;;;4.40;3.33;;;2.40;98.10;;;0.86;97.72;95885.94;5054246;28;20471;-69
2022/01/09 05:46:39;;;;;;;3.47;3.27;;;2.40;98.00;;;0.91;97.38;95894.09;5074534;28;20433;-69
2022/01/09 05:49:06;;;;;;;4.83;3.17;;;2.40;97.50;;;0.96;97.04;95900.44;5074755;28;20780;-69
2022/01/09 05:51:33;;;;;;;5.53;3.47;;;2.50;97.00;;;0.94;97.34;95904.31;5075031;28;20525;-69
2022/01/09 05:54:00;;;;;;;3.63;3.27;;;2.50;96.60;;;0.92;97.58;95901.06;5056988;28;20552;-69
2022/01/09 05:56:27;;;;;;;3.37;2.80;;;2.50;97.40;;;0.87;97.06;95879.59;5074949;28;20917;-69
2022/01/09 05:58:54;;;;;;;3.93;3.40;;;2.50;97.00;;;1.05;97.23;95906.38;5074551;28;20627;-68
2022/01/09 06:01:21;;;;;;;2.87;2.67;;;2.60;97.60;;;0.93;97.51;95916.81;5057356;28;20512;-68
2022/01/09 06:03:49;;;;;;;2.93;2.63;;;2.50;97.10;;;0.93;97.80;95908.84;5074855;28;20524;-69
2022/01/09 06:06:16;;;;;;;3.53;3.23;;;2.50;98.30;;;0.97;97.66;95926.00;5075054;28;20438;-70
2022/01/09 06:08:43;;;;;;;3.50;3.20;;;2.50;97.90;;;1.03;97.64;95924.38;5075047;28;20536;-69
2022/01/09 06:11:10;;;;;;;3.40;3.20;;;2.60;98.00;;;1.26;96.94;95920.44;5075145;28;20433;-69
2022/01/09 06:13:37;;;;;;;3.00;2.80;;;2.70;97.30;;;1.18;97.24;95936.63;5056531;28;20460;-69
2022/01/09 06:16:05;;;;;;;3.17;2.97;;;2.70;96.80;;;1.08;97.86;95937.88;5074711;28;20438;-70
2022/01/09 06:18:32;;;;;;;4.10;3.70;;;2.60;98.10;;;1.24;97.69;95919.84;5074779;28;20917;-67
2022/01/09 06:21:00;;;;;;;3.37;3.17;;;2.70;98.80;;;1.28;96.95;95934.34;5073276;28;20429;-68
2022/01/09 06:23:27;;;;;;;3.07;2.77;;;2.80;97.10;;;1.05;97.17;95922.31;5074348;28;20518;-69
2022/01/09 06:25:55;;;;;;;4.07;3.10;;;2.80;96.90;;;1.13;97.88;95950.56;5074383;28;20507;-70
2022/01/09 06:28:22;;;;;;;3.07;2.87;;;2.70;98.10;;;1.19;98.14;95946.25;5074353;28;20524;-69
2022/01/09 06:30:50;;;;;;;4.03;3.07;;;2.70;99.40;;;1.24;97.98;95947.28;5074416;28;20445;-68
2022/01/09 06:33:17;;;;;;;3.20;2.90;;;2.80;99.00;;;1.41;97.53;95952.94;5073969;28;20933;-69
2022/01/09 06:35:45;;;;;;;3.30;2.33;;;2.90;98.60;;;1.28;97.37;95950.31;5074417;28;20437;-70
2022/01/09 06:38:13;;;;;;;3.23;2.40;;;2.90;97.60;;;1.44;97.40;95964.19;5074452;28;20441;-69
2022/01/09 06:40:40;;;;;;;2.70;2.50;;;2.90;97.90;;;1.36;98.09;95971.41;5074135;28;20429;-69
2022/01/09 06:43:08;;;;;;;2.07;1.97;;;2.90;98.20;;;1.26;97.89;95971.81;5074182;28;20962;-69
2022/01/09 06:45:35;;;;;;;3.07;2.87;;;2.90;98.50;;;1.52;97.32;95995.94;5074361;28;20437;-69
2022/01/09 06:48:03;;;;;;;1.80;1.70;;;3.00;96.70;;;1.51;97.34;95989.78;5074383;28;20430;-69
2022/01/09 06:50:30;;;;;;;2.03;1.93;;;3.00;97.50;;;1.53;96.90;95993.06;5055941;28;20434;-69
2022/01/09 06:52:57;;;;;;;2.20;2.00;;;3.10;96.70;;;1.57;97.01;96001.44;5073976;28;20552;-69
2022/01/09 06:55:25;;;;;;;2.10;1.93;;;3.10;96.60;;;1.52;97.39;96003.91;5073858;28;20833;-69
2022/01/09 06:57:53;;;;;;;2.20;2.10;;;3.10;97.50;;;1.40;97.94;96020.50;5056097;28;20445;-69
2022/01/09 07:00:21;;;;;;;1.90;1.80;;;3.00;98.00;;;1.49;97.58;96009.66;5055612;28;20441;-67
2022/01/09 07:02:49;;;;;;;2.60;1.70;;;3.00;98.50;;;1.60;97.26;96025.00;5074084;28;20544;-68
2022/01/09 07:05:17;;;;;;;1.80;1.70;;;3.10;98.00;;;1.41;97.48;96019.47;5073828;28;20440;-69
2022/01/09 07:07:45;;;;;;;1.80;1.63;;;3.10;97.90;;;1.54;97.96;96036.47;5055741;28;20525;-68
2022/01/09 07:10:12;;;;;;;1.80;1.70;;;3.10;98.90;;;1.59;97.79;96043.84;5055910;28;20485;-68
2022/01/09 07:12:41;;;;;;;1.83;1.73;;;3.10;98.60;;;1.55;97.84;96043.44;5073549;28;20447;-67
2022/01/09 07:15:10;;;;;;;2.60;2.40;;;3.10;98.60;;;1.13;98.14;95977.94;5055637;28;20994;-69
2022/01/09 07:17:37;;;;;;;3.63;2.60;;;3.10;99.70;;;1.63;97.54;96063.69;5072997;28;20549;-68
2022/01/09 07:20:05;;;;;;;1.60;1.50;;;3.10;98.80;;;1.60;97.47;96062.28;5073558;28;20433;-68
2022/01/09 07:22:32;;;;;;;2.27;2.07;;;3.10;97.70;;;1.65;97.89;96070.47;5071899;28;20785;-68
2022/01/09 07:24:59;;;;;;;2.50;2.07;;;3.20;98.40;;;1.72;97.36;96061.63;5073733;28;20429;-68
2022/01/09 07:27:26;;;;;;;1.80;1.70;;;3.20;97.50;;;1.55;97.71;96054.91;5073458;28;20524;-68
2022/01/09 07:29:55;;;;;;;4.03;2.30;;;3.20;98.20;;;1.65;97.96;96069.63;5073697;28;20425;-68
2022/01/09 07:32:22;;;;;;;2.00;1.67;;;3.20;98.70;;;1.63;97.75;96077.84;5073308;28;20429;-68
2022/01/09 07:34:49;;;;;;;1.50;1.10;;;3.20;99.20;;;1.68;97.96;96088.69;5073494;28;20461;-73
2022/01/09 07:37:16;;;;;;;1.10;0.93;;;3.20;99.70;;;1.81;97.62;96095.00;5073728;28;20437;-71
2022/01/09 07:39:43;;;;;;;0.93;0.83;;;3.30;99.30;;;1.83;97.42;96099.13;5073372;28;20433;-70
2022/01/09 07:42:10;;;;;;;0.93;0.70;;;3.30;97.60;;;1.83;97.30;96109.78;5073257;28;20443;-70
2022/01/09 07:44:37;;;;;;;0.80;0.80;;;3.30;98.30;;;1.79;97.64;96108.53;5073059;28;20540;-70
2022/01/09 07:47:06;;;;;;;1.00;0.90;;;3.30;98.10;;;1.88;97.64;96113.66;5073259;28;20437;-69
2022/01/09 07:49:33;;;;;;;1.40;1.10;;;3.40;99.20;;;1.84;98.06;96122.06;5073287;28;20526;-69
2022/01/09 07:51:59;;;;;;;0.70;0.70;;;3.40;99.20;;;1.86;98.24;96134.34;5055282;28;20832;-69
2022/01/09 07:54:26;;;;;;;0.77;0.77;;;3.40;99.40;;;1.90;97.45;96147.06;5055287;28;20475;-69
2022/01/09 07:56:53;;;;;;;0.80;0.80;;;3.40;97.90;;;1.83;97.15;96157.72;5074839;28;20526;-83
2022/01/09 07:59:21;;;;;;;0.90;0.90;;;3.30;97.50;;;1.50;96.41;96115.91;5073859;28;20837;-78
2022/01/09 08:01:50;;;;;;;0.77;0.60;;;3.30;95.70;;;1.87;95.29;96174.06;5073549;28;20455;-68
2022/01/09 08:04:19;;;;;;;1.60;0.40;;;3.40;93.90;;;1.75;94.79;96162.44;5054649;28;21014;-67
2022/01/09 08:06:45;;;;;;;0.53;0.40;;;3.40;93.70;;;1.76;94.17;96185.38;5071798;28;20950;-68
2022/01/09 08:09:12;;;;;;;0.30;0.30;;;3.30;92.30;;;1.77;93.89;96181.69;5076223;28;20520;-67
2022/01/09 08:11:39;;;;;;;0.40;0.30;;;3.30;92.40;;;1.78;93.52;96191.31;5076991;28;20525;-68
2022/01/09 08:14:06;;;;;;;0.50;0.40;;;3.30;92.10;;;1.67;93.33;96198.88;5076904;28;20932;-72
2022/01/09 08:16:33;;;;;;;0.40;0.30;;;3.30;91.50;;;1.70;93.53;96201.13;5059108;28;20536;-70
2022/01/09 08:19:00;;;;;;;1.00;0.47;;;3.20;91.90;;;1.76;92.93;96209.34;5077166;28;20453;-72
2022/01/09 08:21:29;;;;;;;0.50;0.47;;;3.30;91.50;;;1.87;92.00;96215.88;5059587;28;20474;-72
2022/01/09 08:23:56;;;;;;;0.40;0.40;;;3.40;90.70;;;1.87;90.80;96215.88;5077807;28;20437;-72
2022/01/09 08:26:23;;;;;;;0.70;0.50;;;3.40;89.60;;;1.92;90.85;96227.56;5077610;28;20723;-73
2022/01/09 08:28:50;;;;;;;0.73;0.50;;;3.50;89.40;;;1.84;91.39;96227.75;5080746;28;20441;-74
2022/01/09 08:31:19;;;;;;;0.80;0.50;;;3.40;89.90;;;1.89;91.30;96230.63;5082530;28;20480;-75
2022/01/09 08:33:46;;;;;;;1.00;0.50;;;3.40;90.20;;;1.84;91.57;96233.91;5076933;28;20473;-72
2022/01/09 08:36:14;;;;;;;0.70;0.50;;;3.40;90.00;;;1.74;90.85;96233.50;5059082;28;20521;-72
2022/01/09 08:38:43;;;;;;;0.60;0.50;;;3.30;88.30;;;1.85;91.23;96240.03;5062149;28;20434;-72
2022/01/09 08:41:10;;;;;;;0.63;0.63;;;3.40;90.00;;;1.70;91.43;96242.91;5081859;28;20510;-73
2022/01/09 08:43:38;;;;;;;0.63;0.63;;;3.30;89.50;;;1.76;90.56;96255.41;5079158;28;20442;-72
2022/01/09 08:46:06;;;;;;;0.60;0.53;;;3.30;89.30;;;1.78;91.15;96258.69;5078453;28;20524;-72
2022/01/09 08:48:33;;;;;;;0.90;0.70;;;3.30;89.90;;;1.87;90.69;96269.16;5060988;28;20484;-71
2022/01/09 08:51:00;;;;;;;1.67;0.80;;;3.40;89.10;;;1.77;91.56;96267.69;5076342;28;20962;-72
2022/01/09 08:53:27;;;;;;;0.90;0.70;;;3.40;89.80;;;1.90;90.69;96263.41;5076092;28;20484;-72
2022/01/09 08:55:55;;;;;;;0.70;0.63;;;3.40;89.00;;;1.84;90.65;96267.72;5076228;28;20744;-72
2022/01/09 08:58:22;;;;;;;0.67;0.60;;;3.40;89.00;;;1.84;90.70;96281.84;5059152;28;20441;-72
2022/01/09 09:00:50;;;;;;;0.80;0.60;;;3.40;89.00;;;1.84;91.04;96287.19;5076291;28;20434;-72
2022/01/09 09:03:17;;;;;;;0.90;0.80;;;3.40;89.60;;;1.86;91.43;96284.31;5076638;28;20445;-71
2022/01/09 09:05:44;;;;;;;1.03;0.60;;;3.40;90.20;;;1.89;90.79;96294.53;5076934;28;20476;-71
2022/01/09 09:08:11;;;;;;;0.63;0.63;;;3.40;89.50;;;1.90;90.80;96295.38;5075932;28;20465;-72
2022/01/09 09:10:38;;;;;;;1.10;0.93;;;3.40;89.40;;;1.93;90.30;96301.13;5076186;28;20440;-71
2022/01/09 09:13:06;;;;;;;1.20;0.90;;;3.50;88.80;;;1.97;90.46;96313.00;5075384;28;20446;-73
2022/01/09 09:15:33;;;;;;;1.10;1.00;;;3.50;88.90;;;1.89;90.42;96299.88;5076031;28;20463;-72
2022/01/09 09:18:01;;;;;;;0.70;0.70;;;3.50;89.10;;;1.82;91.12;96312.38;5075748;28;20473;-71
2022/01/09 09:20:27;;;;;;;0.80;0.80;;;3.40;89.50;;;1.94;90.69;96320.59;5074491;28;20506;-71
2022/01/09 09:22:54;;;;;;;0.77;0.67;;;3.50;89.60;;;1.96;90.84;96327.34;5057764;28;20537;-72
2022/01/09 09:25:21;;;;;;;1.80;0.73;;;3.50;88.60;;;1.97;90.50;96339.66;5075781;28;20482;-72
2022/01/09 09:27:48;;;;;;;0.70;0.60;;;3.50;88.60;;;2.04;90.76;96352.16;5057541;28;20532;-71
2022/01/09 09:30:17;;;;;;;0.70;0.70;;;3.60;90.00;;;1.97;90.61;96342.31;5075482;28;20437;-72
2022/01/09 09:32:44;;;;;;;1.10;1.07;;;3.50;88.70;;;1.94;91.02;96344.56;5076332;28;20499;-72
2022/01/09 09:35:12;;;;;;;2.33;1.00;;;3.50;90.10;;;1.96;91.94;96359.31;5076111;28;20568;-73
2022/01/09 09:37:39;;;;;;;1.10;0.97;;;3.50;90.50;;;2.07;91.07;96355.25;5077241;28;20465;-73
2022/01/09 09:40:08;;;;;;;1.80;0.83;;;3.60;90.30;;;2.04;91.53;96374.31;5058768;28;20517;-71
2022/01/09 09:42:35;;;;;;;1.27;1.10;;;3.50;90.30;;;2.05;90.83;96365.28;5075049;28;20429;-71
2022/01/09 09:45:05;;;;;;;3.33;0.70;;;3.60;90.20;;;2.03;91.12;96367.34;5075934;28;20438;-72
2022/01/09 09:47:34;;;;;;;0.83;0.83;;;3.60;89.60;;;2.06;91.44;96380.25;5059337;28;20510;-72
2022/01/09 09:50:03;;;;;;;3.53;1.40;;;3.60;90.10;;;2.04;91.08;96386.78;5075966;28;20461;-72
2022/01/09 09:52:30;;;;;;;0.53;0.53;;;3.60;90.30;;;2.02;91.02;96394.16;5082448;28;20529;-72
2022/01/09 09:54:57;;;;;;;1.20;1.10;;;3.60;90.00;;;2.00;91.77;96394.38;5076729;28;20471;-70
2022/01/09 09:57:25;;;;;;;1.30;1.00;;;3.50;90.40;;;1.88;92.35;96404.78;5058250;28;20445;-72
2022/01/09 10:00:01;;;;;;;1.17;1.10;;;3.50;90.60;;;1.89;92.45;96390.44;5076161;28;20437;-71
2022/01/09 10:02:44;;;;;;;1.20;0.80;;;3.50;91.00;;;1.96;92.73;96420.59;5075672;28;20440;-71
2022/01/09 10:05:12;;;;;;;0.60;0.50;;;3.50;91.20;;;1.93;91.97;96415.66;5075664;28;20508;-71
2022/01/09 10:07:39;;;;;;;1.03;0.60;;;3.50;90.70;;;1.93;92.02;96423.66;5075758;28;21016;-71
2022/01/09 10:10:10;;;;;;;1.30;1.20;;;3.50;90.70;;;2.04;92.93;96424.09;5057518;28;20928;-71
2022/01/09 10:12:37;;;;;;;1.40;0.80;;;3.60;91.80;;;2.10;93.07;96428.63;5057504;28;20467;-70
2022/01/09 10:15:08;;;;;;;0.70;0.70;;;3.60;91.60;;;2.14;91.70;96427.19;5076762;28;20465;-71
2022/01/09 10:17:38;;;;;;;0.57;0.57;;;3.70;90.90;;;2.10;91.51;96441.94;5057010;28;20473;-71
2022/01/09 10:20:13;;;;;;;0.70;0.70;;;3.70;90.30;;;1.98;91.37;96449.72;5074881;28;20492;-71
2022/01/09 10:22:44;;;;;;;2.27;0.80;;;3.60;90.00;;;2.15;92.55;96452.03;5074873;28;20857;-71
2022/01/09 10:25:22;;;;;;;1.97;0.80;;;3.70;92.00;;;2.09;92.32;96459.78;5075299;28;20495;-71
2022/01/09 10:27:51;;;;;;;1.07;0.87;;;3.70;90.80;;;2.23;92.51;96465.97;5074728;28;20496;-72
2022/01/09 10:30:23;;;;;;;1.10;0.90;;;3.70;91.70;;;2.28;92.29;96457.38;5076254;28;20445;-69